createdAt,value
2019-01-11T00:01:36.253Z,98118.23
2019-01-11T00:04:04.373Z,98114.38
2019-01-11T00:06:32.508Z,98112.98
2019-01-11T00:09:00.736Z,98116.61
2019-01-11T00:11:28.916Z,98113.23
2019-01-11T00:13:57.054Z,98114.84
2019-01-11T00:16:25.183Z,98119.89
2019-01-11T00:18:53.399Z,98119.28
2019-01-11T00:21:21.554Z,98115.03
2019-01-11T00:23:49.685Z,98117.95
2019-01-11T00:26:17.830Z,98112.86
2019-01-11T00:28:45.990Z,98115.09
2019-01-11T00:31:14.118Z,98112.86
2019-01-11T00:33:42.274Z,98111.41
2019-01-11T00:36:10.385Z,98115.16
2019-01-11T00:38:38.510Z,98113.81
2019-01-11T00:41:06.638Z,98115.67
2019-01-11T00:43:34.783Z,98114.52
2019-01-11T00:46:02.917Z,98120.69
2019-01-11T00:48:31.043Z,98122.33
2019-01-11T00:50:59.157Z,98125.02
2019-01-11T00:53:27.291Z,98118.11
2019-01-11T00:55:55.393Z,98115.72
2019-01-11T00:58:23.555Z,98125.36
2019-01-11T01:00:51.672Z,98122.45
2019-01-11T01:03:19.793Z,98135.87
2019-01-11T01:05:47.909Z,98143.05
2019-01-11T01:08:16.039Z,98145.53
2019-01-11T01:10:44.177Z,98146.30
2019-01-11T01:13:12.341Z,98152.48
2019-01-11T01:15:40.496Z,98153.88
2019-01-11T01:18:08.621Z,98148.70
2019-01-11T01:20:42.802Z,98149.09
2019-01-11T01:23:10.951Z,98151.19
2019-01-11T01:25:39.084Z,98148.23
2019-01-11T01:28:07.301Z,98153.41
2019-01-11T01:30:35.421Z,98161.41
2019-01-11T01:33:03.559Z,98155.75
2019-01-11T01:35:31.696Z,98163.85
2019-01-11T01:37:59.827Z,98167.30
2019-01-11T01:40:27.946Z,98163.28
2019-01-11T01:42:56.053Z,98164.86
2019-01-11T01:45:24.169Z,98161.07
2019-01-11T01:47:52.330Z,98162.70
2019-01-11T01:50:20.449Z,98164.63
2019-01-11T01:52:48.575Z,98157.92
2019-01-11T01:55:16.705Z,98153.88
2019-01-11T01:57:44.817Z,98152.53
2019-01-11T02:00:14.104Z,98150.44
2019-01-11T02:02:42.222Z,98157.68
2019-01-11T02:05:10.587Z,98156.11
2019-01-11T02:07:38.793Z,98155.05
2019-01-11T02:10:07.621Z,98158.02
2019-01-11T02:12:35.817Z,98164.39
2019-01-11T02:15:04.051Z,98160.95
2019-01-11T02:17:32.193Z,98153.41
2019-01-11T02:20:00.383Z,98158.04
2019-01-11T02:22:28.508Z,98157.28
2019-01-11T02:24:56.633Z,98151.89
2019-01-11T02:27:24.765Z,98148.98
2019-01-11T02:29:52.918Z,98154.02
2019-01-11T02:32:21.044Z,98150.80
2019-01-11T02:34:49.145Z,98136.09
2019-01-11T02:37:17.274Z,98138.20
2019-01-11T02:39:45.398Z,98136.63
2019-01-11T02:42:13.546Z,98140.42
2019-01-11T02:44:41.658Z,98137.43
2019-01-11T02:47:09.812Z,98139.59
2019-01-11T02:49:40.284Z,98135.86
2019-01-11T02:52:07.882Z,98127.70
2019-01-11T02:54:36.049Z,98130.73
2019-01-11T02:57:04.176Z,98133.89
2019-01-11T02:59:32.314Z,98126.89
2019-01-11T03:02:00.435Z,98140.06
2019-01-11T03:04:28.557Z,98140.89
2019-01-11T03:06:56.730Z,98140.98
2019-01-11T03:09:24.852Z,98140.72
2019-01-11T03:11:53.097Z,98132.71
2019-01-11T03:14:21.279Z,98136.22
2019-01-11T03:16:49.457Z,98136.73
2019-01-11T03:19:17.704Z,98133.81
2019-01-11T03:21:45.821Z,98140.13
2019-01-11T03:24:13.981Z,98143.69
2019-01-11T03:26:42.390Z,98143.20
2019-01-11T03:29:10.511Z,98148.05
2019-01-11T03:31:38.633Z,98139.95
2019-01-11T03:34:06.846Z,98142.64
2019-01-11T03:36:34.981Z,98142.92
2019-01-11T03:39:04.329Z,98142.20
2019-01-11T03:41:32.455Z,98147.27
2019-01-11T03:44:00.887Z,98138.08
2019-01-11T03:46:28.999Z,98143.73
2019-01-11T03:48:57.238Z,98137.27
2019-01-11T03:51:25.358Z,98135.45
2019-01-11T03:53:53.497Z,98138.89
2019-01-11T03:56:21.627Z,98144.27
2019-01-11T03:58:49.755Z,98147.86
2019-01-11T04:01:17.909Z,98148.56
2019-01-11T04:03:46.022Z,98142.64
2019-01-11T04:06:14.148Z,98149.34
2019-01-11T04:08:42.291Z,98145.08
2019-01-11T04:11:10.414Z,98147.47
2019-01-11T04:13:38.522Z,98144.07
2019-01-11T04:16:06.688Z,98141.16
2019-01-11T04:18:36.550Z,98142.78
2019-01-11T04:21:04.692Z,98149.48
2019-01-11T04:23:32.813Z,98146.75
2019-01-11T04:26:00.994Z,98148.97
2019-01-11T04:28:29.145Z,98154.86
2019-01-11T04:30:57.274Z,98154.80
2019-01-11T04:33:25.426Z,98162.61
2019-01-11T04:35:53.532Z,98156.72
2019-01-11T04:38:21.752Z,98159.12
2019-01-11T04:40:49.885Z,98156.19
2019-01-11T04:43:18.014Z,98154.86
2019-01-11T04:45:46.146Z,98150.02
2019-01-11T04:48:14.269Z,98149.00
2019-01-11T04:50:42.376Z,98144.90
2019-01-11T04:53:10.504Z,98140.11
2019-01-11T04:55:38.623Z,98139.83
2019-01-11T04:58:06.870Z,98139.63
2019-01-11T05:00:34.986Z,98139.08
2019-01-11T05:03:03.107Z,98140.11
2019-01-11T05:05:31.338Z,98140.17
2019-01-11T05:07:59.452Z,98142.05
2019-01-11T05:10:27.598Z,98140.75
2019-01-11T05:12:56.526Z,98139.06
2019-01-11T05:15:24.742Z,98141.24
2019-01-11T05:17:52.858Z,98145.78
2019-01-11T05:20:20.972Z,98146.61
2019-01-11T05:22:49.135Z,98145.54
2019-01-11T05:25:17.253Z,98147.19
2019-01-11T05:27:45.378Z,98151.48
2019-01-11T05:30:17.388Z,98146.31
2019-01-11T05:32:45.523Z,98144.44
2019-01-11T05:35:13.726Z,98137.02
2019-01-11T05:37:41.842Z,98135.88
2019-01-11T05:40:11.562Z,98136.69
2019-01-11T05:42:39.692Z,98128.88
2019-01-11T05:45:07.837Z,98124.91
2019-01-11T05:47:36.039Z,98123.86
2019-01-11T05:50:04.443Z,98128.69
2019-01-11T05:52:32.583Z,98127.05
2019-01-11T05:55:00.707Z,98122.11
2019-01-11T05:57:28.835Z,98125.30
2019-01-11T05:59:57.659Z,98127.34
2019-01-11T06:02:25.793Z,98124.66
2019-01-11T06:05:03.824Z,98122.00
2019-01-11T06:07:49.933Z,98124.73
2019-01-11T06:10:18.063Z,98119.90
2019-01-11T06:12:46.181Z,98112.91
2019-01-11T06:15:14.306Z,98115.77
2019-01-11T06:17:42.452Z,98116.68
2019-01-11T06:20:12.209Z,98113.47
2019-01-11T06:22:40.325Z,98111.84
2019-01-11T06:25:08.687Z,98106.20
2019-01-11T06:27:38.289Z,98112.03
2019-01-11T06:30:07.175Z,98108.39
2019-01-11T06:32:35.331Z,98101.30
2019-01-11T06:35:03.462Z,98106.66
2019-01-11T06:37:31.588Z,98104.27
2019-01-11T06:39:59.709Z,98107.54
2019-01-11T06:42:27.866Z,98109.17
2019-01-11T06:44:55.985Z,98108.34
2019-01-11T06:47:24.145Z,98118.65
2019-01-11T06:49:52.289Z,98115.16
2019-01-11T06:52:20.419Z,98124.66
2019-01-11T06:54:48.602Z,98123.14
2019-01-11T06:57:16.799Z,98120.70
2019-01-11T06:59:44.938Z,98132.34
2019-01-11T07:02:13.058Z,98135.56
2019-01-11T07:04:41.170Z,98133.13
2019-01-11T07:07:09.322Z,98138.72
2019-01-11T07:09:37.449Z,98135.56
2019-01-11T07:12:05.565Z,98138.24
2019-01-11T07:14:33.695Z,98139.81
2019-01-11T07:17:01.821Z,98140.92
2019-01-11T07:19:29.974Z,98140.44
2019-01-11T07:21:58.285Z,98140.92
2019-01-11T07:24:26.438Z,98143.84
2019-01-11T07:26:54.570Z,98142.73
2019-01-11T07:29:22.690Z,98140.97
2019-01-11T07:31:50.829Z,98142.45
2019-01-11T07:34:18.954Z,98139.53
2019-01-11T07:36:49.634Z,98148.72
2019-01-11T07:39:33.857Z,98147.58
2019-01-11T07:42:02.045Z,98135.31
2019-01-11T07:44:30.195Z,98132.92
2019-01-11T07:46:58.328Z,98138.04
2019-01-11T07:49:26.468Z,98142.02
2019-01-11T07:51:54.613Z,98135.07
2019-01-11T07:54:22.725Z,98132.68
2019-01-11T07:56:51.215Z,98136.98
2019-01-11T07:59:20.850Z,98132.39
2019-01-11T08:01:49.007Z,98131.88
2019-01-11T08:04:17.231Z,98133.21
2019-01-11T08:06:45.342Z,98127.05
2019-01-11T08:09:13.460Z,98129.19
2019-01-11T08:11:41.598Z,98138.62
2019-01-11T08:14:09.737Z,98134.37
2019-01-11T08:16:37.890Z,98141.02
2019-01-11T08:19:06.014Z,98139.96
2019-01-11T08:21:34.133Z,98144.23
2019-01-11T08:24:02.251Z,98149.36
2019-01-11T08:26:30.380Z,98155.72
2019-01-11T08:28:58.530Z,98144.14
2019-01-11T08:31:26.665Z,98143.70
2019-01-11T08:33:54.810Z,98147.44
2019-01-11T08:36:22.971Z,98144.98
2019-01-11T08:38:51.094Z,98138.05
2019-01-11T08:41:19.234Z,98151.50
2019-01-11T08:43:47.398Z,98142.66
2019-01-11T08:46:15.521Z,98147.25
2019-01-11T08:48:43.647Z,98155.28
2019-01-11T08:51:11.761Z,98151.75
2019-01-11T08:53:39.891Z,98150.41
2019-01-11T08:56:08.485Z,98151.55
2019-01-11T08:58:36.961Z,98153.51
2019-01-11T09:01:05.081Z,98145.19
2019-01-11T09:03:33.301Z,98143.41
2019-01-11T09:06:01.429Z,98143.36
2019-01-11T09:08:29.567Z,98149.05
2019-01-11T09:10:57.754Z,98148.49
2019-01-11T09:13:25.869Z,98143.65
2019-01-11T09:15:53.989Z,98146.66
2019-01-11T09:18:35.217Z,98146.91
2019-01-11T09:21:09.202Z,98147.38
2019-01-11T09:23:33.141Z,98138.20
2019-01-11T09:26:02.866Z,98146.53
2019-01-11T09:28:30.977Z,98142.02
2019-01-11T09:30:59.130Z,98148.25
2019-01-11T09:33:27.276Z,98152.50
2019-01-11T09:35:55.399Z,98151.45
2019-01-11T09:38:23.526Z,98151.27
2019-01-11T09:40:51.646Z,98150.45
2019-01-11T09:43:19.848Z,98149.94
2019-01-11T09:45:47.999Z,98151.84
2019-01-11T09:48:16.118Z,98160.89
2019-01-11T09:50:44.242Z,98085.57
2019-01-11T09:53:12.391Z,98153.17
2019-01-11T09:55:40.535Z,98157.16
2019-01-11T09:58:08.639Z,98148.02
2019-01-11T10:00:36.749Z,98147.77
2019-01-11T10:03:09.726Z,98150.41
2019-01-11T10:05:37.877Z,98150.69
2019-01-11T10:08:06.012Z,98149.34
2019-01-11T10:10:34.121Z,98148.30
2019-01-11T10:13:02.358Z,98150.50
2019-01-11T10:15:30.580Z,98151.80
2019-01-11T10:17:58.701Z,98144.57
2019-01-11T10:20:26.816Z,98142.75
2019-01-11T10:22:54.982Z,98132.32
2019-01-11T10:25:23.102Z,98133.36
2019-01-11T10:27:51.217Z,98129.69
2019-01-11T10:30:19.722Z,98129.06
2019-01-11T10:32:47.841Z,98126.95
2019-01-11T10:35:15.964Z,98125.33
2019-01-11T10:37:44.251Z,98126.38
2019-01-11T10:40:13.104Z,98124.55
2019-01-11T10:42:41.236Z,98121.83
2019-01-11T10:45:10.882Z,98117.10
2019-01-11T10:47:38.996Z,98114.61
2019-01-11T10:50:07.547Z,98114.36
2019-01-11T10:52:35.660Z,98119.30
2019-01-11T10:55:03.834Z,98119.30
2019-01-11T10:57:31.963Z,98120.55
2019-01-11T11:00:00.091Z,98118.72
2019-01-11T11:02:28.227Z,98107.66
2019-01-11T11:04:56.350Z,98107.12
2019-01-11T11:07:24.506Z,98112.20
2019-01-11T11:09:52.737Z,98111.39
2019-01-11T11:12:20.867Z,98108.19
2019-01-11T11:14:48.990Z,98106.08
2019-01-11T11:17:17.122Z,98101.48
2019-01-11T11:19:45.262Z,98109.19
2019-01-11T11:22:13.415Z,98106.33
2019-01-11T11:24:41.546Z,98104.98
2019-01-11T11:27:09.670Z,98098.05
2019-01-11T11:29:37.776Z,98103.40
2019-01-11T11:32:05.929Z,98093.74
2019-01-11T11:34:35.177Z,98092.11
2019-01-11T11:37:03.873Z,98097.75
2019-01-11T11:39:31.993Z,98088.37
2019-01-11T11:42:00.154Z,98084.83
2019-01-11T11:44:28.278Z,98079.27
2019-01-11T11:46:56.410Z,98079.00
2019-01-11T11:49:24.537Z,97999.30
2019-01-11T11:51:52.645Z,98074.69
2019-01-11T11:54:20.885Z,98070.95
2019-01-11T11:56:49.022Z,98079.56
2019-01-11T11:59:17.223Z,98071.77
2019-01-11T12:01:46.689Z,98073.73
2019-01-11T12:04:14.998Z,98063.78
2019-01-11T12:06:43.149Z,98054.62
2019-01-11T12:09:11.279Z,98052.95
2019-01-11T12:11:39.441Z,98045.77
2019-01-11T12:14:07.583Z,98050.37
2019-01-11T12:16:35.711Z,98047.46
2019-01-11T12:19:03.853Z,98050.09
2019-01-11T12:21:31.976Z,98046.41
2019-01-11T12:24:00.102Z,98046.08
2019-01-11T12:26:28.326Z,98038.03
2019-01-11T12:28:56.472Z,98035.05
2019-01-11T12:31:24.597Z,98008.58
2019-01-11T12:33:52.810Z,98031.90
2019-01-11T12:36:20.942Z,98024.91
2019-01-11T12:38:49.056Z,98029.28
2019-01-11T12:41:17.214Z,98022.80
2019-01-11T12:43:45.327Z,98015.77
2019-01-11T12:46:13.463Z,98021.17
2019-01-11T12:48:41.569Z,98017.47
2019-01-11T12:51:09.697Z,98019.56
2019-01-11T12:53:37.840Z,98015.59
2019-01-11T12:56:05.994Z,98009.65
2019-01-11T12:58:34.081Z,98004.63
2019-01-11T13:01:02.212Z,98007.77
2019-01-11T13:03:30.324Z,98006.97
2019-01-11T13:05:58.469Z,98004.63
2019-01-11T13:08:26.595Z,97998.99
2019-01-11T13:10:54.777Z,97998.45
2019-01-11T13:13:22.897Z,97993.74
2019-01-11T13:15:51.008Z,97988.55
2019-01-11T13:18:19.174Z,97983.38
2019-01-11T13:20:47.293Z,97980.17
2019-01-11T13:23:15.418Z,97978.58
2019-01-11T13:25:43.528Z,97988.73
2019-01-11T13:28:11.663Z,97986.04
2019-01-11T13:30:39.805Z,97984.23
2019-01-11T13:33:07.949Z,97987.45
2019-01-11T13:35:36.070Z,97983.67
2019-01-11T13:38:04.190Z,97977.53
2019-01-11T13:40:32.309Z,97985.30
2019-01-11T13:43:00.566Z,97985.30
2019-01-11T13:45:28.714Z,97982.43
2019-01-11T13:47:56.833Z,97982.14
2019-01-11T13:50:38.180Z,97990.42
2019-01-11T13:53:06.999Z,97986.91
2019-01-11T13:55:35.135Z,97983.96
2019-01-11T13:58:03.245Z,97979.19
2019-01-11T14:00:31.370Z,97973.34
2019-01-11T14:02:59.495Z,97974.16
2019-01-11T14:05:27.658Z,97968.47
2019-01-11T14:07:55.765Z,97980.70
2019-01-11T14:10:23.890Z,97975.34
2019-01-11T14:12:52.027Z,97977.27
2019-01-11T14:15:20.129Z,97975.78
2019-01-11T14:17:48.277Z,97968.73
2019-01-11T14:20:16.398Z,97964.20
2019-01-11T14:22:44.630Z,97964.49
2019-01-11T14:25:12.756Z,97959.36
2019-01-11T14:27:40.882Z,97960.81
2019-01-11T14:30:09.049Z,97962.16
2019-01-11T14:32:37.174Z,97957.60
2019-01-11T14:35:05.920Z,97951.19
2019-01-11T14:37:34.083Z,97957.38
2019-01-11T14:40:02.223Z,97958.89
2019-01-11T14:42:30.343Z,97957.55
2019-01-11T14:44:58.463Z,97957.80
2019-01-11T14:47:26.591Z,97958.37
2019-01-11T14:49:54.729Z,97960.81
2019-01-11T14:52:22.858Z,97954.92
2019-01-11T14:54:50.982Z,97953.78
2019-01-11T14:57:19.131Z,97960.23
2019-01-11T14:59:47.241Z,97960.47
2019-01-11T15:02:15.362Z,97957.80
2019-01-11T15:04:43.495Z,97954.88
2019-01-11T15:07:11.597Z,97955.16
2019-01-11T15:09:39.750Z,97955.41
2019-01-11T15:12:07.879Z,97953.36
2019-01-11T15:14:36.030Z,97946.42
2019-01-11T15:17:04.139Z,97946.91
2019-01-11T15:19:32.365Z,97946.83
2019-01-11T15:22:00.511Z,97955.11
2019-01-11T15:24:28.642Z,97953.36
2019-01-11T15:26:56.758Z,97952.36
2019-01-11T15:29:24.912Z,97953.58
2019-01-11T15:31:53.029Z,97952.59
2019-01-11T15:34:21.140Z,97955.50
2019-01-11T15:36:49.281Z,97955.75
2019-01-11T15:39:17.465Z,97941.64
2019-01-11T15:41:45.622Z,97942.70
2019-01-11T15:44:13.901Z,97935.77
2019-01-11T15:46:42.044Z,97944.61
2019-01-11T15:49:10.153Z,97938.96
2019-01-11T15:51:38.276Z,97939.78
2019-01-11T15:54:06.388Z,97940.55
2019-01-11T15:56:34.534Z,97939.25
2019-01-11T15:59:02.644Z,97943.05
2019-01-11T16:01:30.768Z,97942.47
2019-01-11T16:03:58.881Z,97936.01
2019-01-11T16:06:31.129Z,97927.21
2019-01-11T16:09:16.220Z,97926.73
2019-01-11T16:11:46.227Z,97931.52
2019-01-11T16:14:42.326Z,97934.48
2019-01-11T16:17:11.883Z,97933.38
2019-01-11T16:19:40.022Z,97941.17
2019-01-11T16:22:08.154Z,97930.45
2019-01-11T16:24:36.273Z,97933.09
2019-01-11T16:27:04.495Z,97936.98
2019-01-11T16:29:32.624Z,97933.42
2019-01-11T16:32:00.767Z,97937.17
2019-01-11T16:34:28.994Z,97941.75
2019-01-11T16:36:57.109Z,97936.98
2019-01-11T16:39:25.237Z,97936.11
2019-01-11T16:41:53.439Z,97929.89
2019-01-11T16:44:21.591Z,97928.36
2019-01-11T16:46:49.882Z,97924.63
2019-01-11T16:49:18.108Z,97918.88
2019-01-11T16:51:46.230Z,97916.48
2019-01-11T16:54:14.450Z,97925.56
2019-01-11T16:56:42.592Z,97924.00
2019-01-11T16:59:11.426Z,97920.98
2019-01-11T17:01:39.576Z,97916.84
2019-01-11T17:04:07.697Z,97914.45
2019-01-11T17:06:35.829Z,97915.27
2019-01-11T17:09:05.627Z,97922.78
2019-01-11T17:11:33.748Z,97923.02
2019-01-11T17:14:01.858Z,97926.27
2019-01-11T17:16:29.990Z,97920.32
2019-01-11T17:18:58.105Z,97918.80
2019-01-11T17:21:26.238Z,97916.12
2019-01-11T17:23:54.366Z,97921.73
2019-01-11T17:26:22.490Z,97921.20
2019-01-11T17:28:50.632Z,97921.44
2019-01-11T17:31:18.754Z,97912.94
2019-01-11T17:33:46.882Z,97911.06
2019-01-11T17:36:15.015Z,97903.31
2019-01-11T17:38:43.223Z,97894.89
2019-01-11T17:41:11.378Z,97892.60
2019-01-11T17:43:39.503Z,97891.14
2019-01-11T17:46:07.618Z,97891.97
2019-01-11T17:48:35.743Z,97893.83
2019-01-11T17:51:03.882Z,97884.73
2019-01-11T17:53:32.031Z,97886.38
2019-01-11T17:56:00.393Z,97881.33
2019-01-11T17:58:28.627Z,97884.76
2019-01-11T18:00:56.744Z,97886.44
2019-01-11T18:03:25.409Z,97889.41
2019-01-11T18:05:53.613Z,97887.59
2019-01-11T18:08:21.744Z,97887.59
2019-01-11T18:10:49.860Z,97887.02
2019-01-11T18:13:18.080Z,97895.81
2019-01-11T18:15:46.190Z,97894.23
2019-01-11T18:18:14.342Z,97901.22
2019-01-11T18:20:42.467Z,97901.22
2019-01-11T18:23:10.621Z,97903.84
2019-01-11T18:25:38.771Z,97888.63
2019-01-11T18:28:06.899Z,97888.36
2019-01-11T18:30:35.013Z,97888.92
2019-01-11T18:33:03.134Z,97892.67
2019-01-11T18:35:31.258Z,97889.12
2019-01-11T18:37:59.401Z,97889.16
2019-01-11T18:40:27.620Z,97889.12
2019-01-11T18:42:55.798Z,97888.65
2019-01-11T18:45:28.609Z,97878.98
2019-01-11T18:47:53.676Z,97881.33
2019-01-11T18:50:22.557Z,97881.38
2019-01-11T18:52:50.681Z,97882.52
2019-01-11T18:55:18.807Z,97881.66
2019-01-11T18:57:46.965Z,97879.03
2019-01-11T19:00:16.371Z,97882.00
2019-01-11T19:02:44.559Z,97872.89
2019-01-11T19:05:12.998Z,97877.20
2019-01-11T19:07:45.924Z,97873.70
2019-01-11T19:10:11.626Z,97874.91
2019-01-11T19:12:39.770Z,97877.65
2019-01-11T19:15:09.209Z,97874.21
2019-01-11T19:17:37.337Z,97871.52
2019-01-11T19:20:09.146Z,97878.23
2019-01-11T19:22:37.270Z,97878.30
2019-01-11T19:25:06.718Z,97883.34
2019-01-11T19:27:34.853Z,97878.00
2019-01-11T19:30:02.994Z,97878.23
2019-01-11T19:32:31.115Z,97878.59
2019-01-11T19:34:59.242Z,97872.38
2019-01-11T19:37:27.376Z,97879.92
2019-01-11T19:39:55.532Z,97871.08
2019-01-11T19:42:23.654Z,97882.84
2019-01-11T19:44:51.766Z,97881.45
2019-01-11T19:47:19.904Z,97892.67
2019-01-11T19:49:48.040Z,97893.48
2019-01-11T19:52:16.153Z,97895.64
2019-01-11T19:54:44.284Z,97893.80
2019-01-11T19:57:12.410Z,97881.50
2019-01-11T19:59:40.645Z,97885.57
2019-01-11T20:02:08.774Z,97884.77
2019-01-11T20:04:36.885Z,97883.13
2019-01-11T20:07:05.053Z,97872.77
2019-01-11T20:09:33.212Z,97874.01
2019-01-11T20:12:01.370Z,97869.75
2019-01-11T20:14:29.478Z,97869.50
2019-01-11T20:16:57.602Z,97869.75
2019-01-11T20:19:25.713Z,97865.80
2019-01-11T20:21:53.831Z,97869.86
2019-01-11T20:24:22.086Z,97856.72
2019-01-11T20:26:50.250Z,97857.98
2019-01-11T20:29:18.362Z,97863.68
2019-01-11T20:31:46.491Z,97864.16
2019-01-11T20:34:14.606Z,97865.55
2019-01-11T20:36:48.794Z,97859.10
2019-01-11T20:39:16.943Z,97858.05
2019-01-11T20:41:45.058Z,97857.28
2019-01-11T20:44:13.314Z,97855.09
2019-01-11T20:46:41.432Z,97856.42
2019-01-11T20:49:09.646Z,97854.38
2019-01-11T20:51:37.810Z,97854.38
2019-01-11T20:54:05.934Z,97844.47
2019-01-11T20:56:34.378Z,97856.23
2019-01-11T20:59:02.502Z,97861.89
2019-01-11T21:01:30.613Z,97859.15
2019-01-11T21:03:58.753Z,97860.78
2019-01-11T21:06:26.953Z,97862.34
2019-01-11T21:08:55.081Z,97853.91
2019-01-11T21:11:23.201Z,97856.52
2019-01-11T21:13:51.385Z,97862.92
2019-01-11T21:16:19.463Z,97858.62
2019-01-11T21:18:47.585Z,97863.22
2019-01-11T21:21:15.701Z,97869.39
2019-01-11T21:23:48.626Z,97859.69
2019-01-11T21:26:13.635Z,97866.36
2019-01-11T21:28:41.749Z,97871.48
2019-01-11T21:31:09.902Z,97867.47
2019-01-11T21:33:38.009Z,97858.62
2019-01-11T21:36:06.138Z,97863.70
2019-01-11T21:38:34.254Z,97855.38
2019-01-11T21:41:02.378Z,97854.03
2019-01-11T21:43:30.502Z,97855.59
2019-01-11T21:46:03.288Z,97849.84
2019-01-11T21:48:28.409Z,97852.16
2019-01-11T21:50:56.531Z,97862.63
2019-01-11T21:53:24.662Z,97860.91
2019-01-11T21:55:52.776Z,97852.75
2019-01-11T21:58:20.927Z,97862.07
2019-01-11T22:00:49.466Z,97864.73
2019-01-11T22:03:21.463Z,97865.31
2019-01-11T22:05:49.570Z,97869.28
2019-01-11T22:08:17.719Z,97867.65
2019-01-11T22:10:45.839Z,97868.41
2019-01-11T22:13:13.974Z,97869.03
2019-01-11T22:15:42.089Z,97867.98
2019-01-11T22:18:10.216Z,97870.15
2019-01-11T22:20:38.357Z,97873.12
2019-01-11T22:23:06.477Z,97872.30
2019-01-11T22:25:34.613Z,97874.12
2019-01-11T22:28:02.867Z,97869.56
2019-01-11T22:30:30.975Z,97868.45
2019-01-11T22:32:59.391Z,97868.45
2019-01-11T22:35:27.521Z,97863.70
2019-01-11T22:37:55.632Z,97866.18
2019-01-11T22:40:23.940Z,97866.60
2019-01-11T22:42:53.337Z,97865.38
2019-01-11T22:45:21.515Z,97867.30
2019-01-11T22:47:49.657Z,97864.28
2019-01-11T22:50:17.986Z,97856.25
2019-01-11T22:52:46.119Z,97863.70
2019-01-11T22:55:14.514Z,97862.36
2019-01-11T22:57:42.638Z,97864.27
2019-01-11T23:00:33.353Z,97867.23
2019-01-11T23:03:01.471Z,97864.56
2019-01-11T23:05:29.666Z,97783.16
2019-01-11T23:07:59.249Z,97866.13
2019-01-11T23:10:40.230Z,97868.92
2019-01-11T23:13:10.270Z,97878.83
2019-01-11T23:15:39.737Z,97869.44
2019-01-11T23:18:18.037Z,97871.06
2019-01-11T23:20:47.142Z,97877.00
2019-01-11T23:23:15.261Z,97882.64
2019-01-11T23:25:43.381Z,97874.08
2019-01-11T23:28:11.497Z,97872.47
2019-01-11T23:30:39.641Z,97882.83
2019-01-11T23:33:07.825Z,97883.41
2019-01-11T23:35:35.969Z,97881.50
2019-01-11T23:38:04.102Z,97885.08
2019-01-11T23:40:32.248Z,97887.13
2019-01-11T23:43:00.393Z,97876.15
2019-01-11T23:45:28.610Z,97879.72
2019-01-11T23:47:56.738Z,97879.16
2019-01-11T23:50:24.848Z,97876.77
2019-01-11T23:52:52.966Z,97876.00
2019-01-11T23:55:21.121Z,97879.11
2019-01-11T23:57:49.236Z,97875.86
